createdAt,value
2019-05-07T00:00:43.598Z,9.43
2019-05-07T00:03:12.339Z,8.63
2019-05-07T00:05:42.738Z,8.27
2019-05-07T00:08:12.401Z,6.53
2019-05-07T00:10:42.557Z,7.37
2019-05-07T00:13:12.855Z,8.13
2019-05-07T00:15:42.446Z,6.17
2019-05-07T00:18:12.718Z,8.13
2019-05-07T00:20:42.523Z,6.23
2019-05-07T00:23:12.473Z,9.43
2019-05-07T00:25:42.311Z,7.03
2019-05-07T00:28:12.813Z,4.43
2019-05-07T00:30:42.661Z,7.37
2019-05-07T00:33:13.149Z,10.30
2019-05-07T00:35:50.429Z,7.13
2019-05-07T00:38:22.424Z,6.97
2019-05-07T00:40:53.580Z,5.03
2019-05-07T00:43:24.659Z,5.60
2019-05-07T00:45:58.746Z,6.63
2019-05-07T00:48:28.234Z,7.93
2019-05-07T00:50:59.324Z,6.77
2019-05-07T00:53:28.836Z,10.13
2019-05-07T00:55:58.276Z,10.80
2019-05-07T00:58:27.702Z,6.93
2019-05-07T01:00:57.134Z,9.20
2019-05-07T01:03:26.646Z,7.77
2019-05-07T01:05:56.184Z,7.93
2019-05-07T01:08:27.006Z,10.07
2019-05-07T01:10:56.390Z,7.93
2019-05-07T01:13:25.822Z,9.23
2019-05-07T01:15:55.326Z,9.00
2019-05-07T01:18:27.324Z,8.97
2019-05-07T01:20:56.931Z,11.00
2019-05-07T01:23:26.575Z,6.63
2019-05-07T01:25:56.022Z,8.67
2019-05-07T01:28:25.444Z,6.77
2019-05-07T01:30:54.880Z,8.23
2019-05-07T01:33:33.190Z,7.87
2019-05-07T01:36:07.055Z,6.83
2019-05-07T01:38:38.376Z,9.77
2019-05-07T01:41:07.826Z,7.17
2019-05-07T01:43:37.288Z,9.57
2019-05-07T01:46:06.900Z,7.07
2019-05-07T01:48:36.351Z,7.57
2019-05-07T01:51:05.786Z,9.63
2019-05-07T01:53:36.302Z,6.57
2019-05-07T01:56:05.747Z,7.43
2019-05-07T01:58:35.269Z,6.50
2019-05-07T02:01:04.694Z,6.73
2019-05-07T02:03:52.796Z,9.43
2019-05-07T02:06:35.890Z,7.37
2019-05-07T02:09:24.930Z,7.17
2019-05-07T02:12:02.543Z,8.43
2019-05-07T02:14:33.005Z,7.27
2019-05-07T02:17:04.256Z,6.90
2019-05-07T02:19:33.723Z,9.20
2019-05-07T02:22:03.183Z,9.57
2019-05-07T02:24:33.859Z,7.77
2019-05-07T02:27:04.646Z,5.70
2019-05-07T02:29:34.094Z,7.30
2019-05-07T02:32:04.633Z,10.40
2019-05-07T02:34:34.691Z,6.43
2019-05-07T02:37:05.839Z,10.83
2019-05-07T02:39:48.791Z,14.17
2019-05-07T02:42:18.248Z,7.20
2019-05-07T02:44:57.993Z,7.33
2019-05-07T02:47:29.216Z,8.80
2019-05-07T02:50:02.950Z,8.37
2019-05-07T02:52:49.483Z,8.00
2019-05-07T02:55:23.233Z,7.63
2019-05-07T02:57:54.043Z,12.17
2019-05-07T03:00:24.370Z,11.83
2019-05-07T03:02:54.020Z,8.63
2019-05-07T03:05:23.603Z,11.67
2019-05-07T03:07:53.753Z,11.37
2019-05-07T03:10:24.089Z,8.07
2019-05-07T03:12:53.904Z,8.87
2019-05-07T03:15:24.280Z,10.40
2019-05-07T03:17:54.134Z,9.73
2019-05-07T03:20:25.289Z,10.82
2019-05-07T03:22:55.873Z,8.40
2019-05-07T03:25:33.891Z,10.80
2019-05-07T03:28:04.317Z,13.40
2019-05-07T03:30:45.850Z,9.77
2019-05-07T03:33:36.550Z,11.90
2019-05-07T03:36:07.952Z,8.30
2019-05-07T03:38:38.556Z,8.80
2019-05-07T03:41:08.023Z,11.33
2019-05-07T03:43:37.582Z,11.97
2019-05-07T03:46:14.136Z,9.50
2019-05-07T03:48:44.290Z,10.87
2019-05-07T03:51:14.016Z,14.43
2019-05-07T03:53:44.039Z,10.63
2019-05-07T03:56:13.547Z,8.00
2019-05-07T03:58:44.588Z,8.83
2019-05-07T04:01:14.030Z,10.57
2019-05-07T04:03:44.735Z,9.13
2019-05-07T04:06:14.581Z,10.77
2019-05-07T04:08:45.231Z,7.30
2019-05-07T04:11:14.669Z,8.63
2019-05-07T04:13:44.507Z,9.68
2019-05-07T04:16:14.113Z,8.80
2019-05-07T04:18:44.077Z,8.80
2019-05-07T04:21:14.231Z,9.23
2019-05-07T04:23:44.225Z,11.30
2019-05-07T04:26:27.680Z,7.70
2019-05-07T04:29:04.883Z,7.73
2019-05-07T04:31:34.669Z,12.87
2019-05-07T04:34:05.938Z,9.90
2019-05-07T04:36:36.357Z,8.93
2019-05-07T04:39:08.104Z,11.93
2019-05-07T04:41:37.686Z,7.00
2019-05-07T04:44:07.103Z,7.00
2019-05-07T04:46:36.610Z,13.40
2019-05-07T04:49:07.116Z,9.87
2019-05-07T04:51:47.130Z,7.78
2019-05-07T04:54:16.636Z,11.30
2019-05-07T04:56:46.071Z,7.63
2019-05-07T04:59:15.559Z,7.53
2019-05-07T05:01:47.695Z,8.90
2019-05-07T05:04:26.961Z,4.63
2019-05-07T05:06:48.225Z,11.37
2019-05-07T05:09:17.826Z,5.37
2019-05-07T05:11:47.378Z,7.43
2019-05-07T05:14:16.853Z,6.33
2019-05-07T05:16:46.287Z,6.60
2019-05-07T05:19:15.721Z,6.60
2019-05-07T05:21:47.102Z,6.03
2019-05-07T05:24:18.321Z,5.90
2019-05-07T05:26:47.781Z,5.67
2019-05-07T05:29:17.784Z,8.13
2019-05-07T05:31:47.235Z,7.12
2019-05-07T05:34:16.739Z,7.25
2019-05-07T05:36:46.175Z,4.70
2019-05-07T05:39:15.605Z,4.17
2019-05-07T05:41:46.768Z,3.98
2019-05-07T05:44:18.229Z,4.47
2019-05-07T05:46:47.603Z,7.60
2019-05-07T05:49:17.031Z,7.45
2019-05-07T05:52:01.979Z,6.08
2019-05-07T05:54:32.750Z,5.80
2019-05-07T05:57:15.635Z,6.47
2019-05-07T05:59:54.441Z,3.72
2019-05-07T06:02:37.559Z,6.67
2019-05-07T06:05:25.269Z,5.97
2019-05-07T06:07:56.383Z,7.12
2019-05-07T06:10:42.461Z,9.10
2019-05-07T06:13:19.491Z,7.62
2019-05-07T06:15:59.396Z,7.83
2019-05-07T06:18:36.116Z,6.50
2019-05-07T06:21:24.218Z,5.97
2019-05-07T06:23:56.411Z,7.40
2019-05-07T06:26:25.849Z,3.75
2019-05-07T06:28:55.336Z,5.95
2019-05-07T06:31:25.030Z,7.28
2019-05-07T06:33:54.468Z,5.15
2019-05-07T06:36:24.064Z,8.10
2019-05-07T06:39:12.574Z,5.53
2019-05-07T06:42:02.089Z,6.95
2019-05-07T06:44:33.602Z,6.58
2019-05-07T06:47:03.036Z,6.10
2019-05-07T06:49:32.578Z,6.67
2019-05-07T06:52:03.002Z,6.40
2019-05-07T06:54:32.634Z,5.90
2019-05-07T06:57:02.155Z,7.23
2019-05-07T06:59:34.746Z,5.62
2019-05-07T07:02:24.057Z,7.67
2019-05-07T07:04:55.266Z,5.78
2019-05-07T07:07:32.341Z,7.37
2019-05-07T07:09:58.968Z,5.62
2019-05-07T07:12:30.124Z,5.00
2019-05-07T07:14:59.616Z,6.45
2019-05-07T07:17:29.056Z,7.47
2019-05-07T07:19:58.488Z,6.15
2019-05-07T07:22:32.067Z,5.58
2019-05-07T07:25:02.543Z,4.97
2019-05-07T07:27:32.754Z,6.55
2019-05-07T07:30:03.760Z,5.87
2019-05-07T07:32:37.703Z,5.40
2019-05-07T07:35:10.106Z,6.72
2019-05-07T07:37:42.933Z,6.03
2019-05-07T07:40:17.978Z,6.40
2019-05-07T07:42:47.358Z,5.70
2019-05-07T07:45:17.928Z,6.20
2019-05-07T07:47:48.016Z,6.53
2019-05-07T07:50:18.899Z,7.85
2019-05-07T07:52:48.358Z,5.55
2019-05-07T07:55:19.568Z,6.42
2019-05-07T07:57:53.407Z,7.80
2019-05-07T08:00:42.868Z,6.92
2019-05-07T08:03:14.337Z,8.67
2019-05-07T08:05:43.768Z,7.28
2019-05-07T08:08:13.280Z,9.70
2019-05-07T08:10:42.992Z,5.00
2019-05-07T08:13:12.417Z,8.23
2019-05-07T08:27:42.101Z,8.80
2019-05-07T08:30:14.670Z,6.70
2019-05-07T08:32:45.886Z,6.90
2019-05-07T08:39:15.744Z,8.67
2019-05-07T08:41:45.135Z,11.37
2019-05-07T08:44:18.956Z,10.73
2019-05-07T08:47:07.301Z,7.62
2019-05-07T08:49:40.047Z,3.03
2019-05-07T08:52:11.807Z,6.17
2019-05-07T08:54:42.657Z,5.67
2019-05-07T08:57:12.261Z,6.47
2019-05-07T08:59:46.763Z,5.30
2019-05-07T09:02:13.211Z,7.37
2019-05-07T09:04:42.784Z,5.30
2019-05-07T09:07:13.046Z,7.78
2019-05-07T09:09:42.884Z,6.97
2019-05-07T09:12:12.624Z,7.23
2019-05-07T09:14:42.680Z,4.03
2019-05-07T09:17:12.800Z,4.13
2019-05-07T09:19:50.598Z,4.47
2019-05-07T09:22:14.690Z,4.45
2019-05-07T09:24:44.214Z,5.93
2019-05-07T09:27:24.600Z,6.80
2019-05-07T09:29:55.735Z,3.37
2019-05-07T09:32:39.020Z,2.83
2019-05-07T09:35:26.779Z,4.90
2019-05-07T09:37:56.130Z,5.13
2019-05-07T09:40:25.558Z,5.60
2019-05-07T09:42:55.073Z,4.30
2019-05-07T09:45:24.552Z,4.13
2019-05-07T09:47:54.073Z,3.60
2019-05-07T09:50:23.575Z,4.37
2019-05-07T09:52:53.164Z,5.50
2019-05-07T09:55:23.304Z,4.43
2019-05-07T09:57:53.235Z,6.57
2019-05-07T10:00:23.626Z,5.93
2019-05-07T10:02:53.576Z,6.87
2019-05-07T10:05:24.367Z,7.93
2019-05-07T10:07:53.888Z,3.60
2019-05-07T10:10:23.561Z,5.22
2019-05-07T10:12:57.386Z,8.23
2019-05-07T10:15:26.734Z,6.22
2019-05-07T10:17:57.968Z,6.05
2019-05-07T10:20:27.724Z,8.15
2019-05-07T10:22:57.319Z,4.42
2019-05-07T10:25:28.626Z,5.65
2019-05-07T10:27:58.162Z,5.30
2019-05-07T10:30:27.764Z,6.90
2019-05-07T10:32:57.288Z,4.22
2019-05-07T10:35:26.719Z,6.53
2019-05-07T10:37:56.343Z,6.77
2019-05-07T10:40:26.743Z,3.65
2019-05-07T10:42:56.264Z,4.85
2019-05-07T10:45:42.478Z,7.47
2019-05-07T10:48:16.310Z,5.30
2019-05-07T10:50:47.478Z,6.80
2019-05-07T10:53:17.084Z,7.05
2019-05-07T10:55:46.502Z,6.53
2019-05-07T10:58:16.104Z,7.12
2019-05-07T11:00:45.678Z,6.67
2019-05-07T11:03:16.835Z,5.73
2019-05-07T11:05:46.338Z,7.12
2019-05-07T11:08:15.860Z,7.20
2019-05-07T11:10:45.204Z,5.57
2019-05-07T11:13:14.718Z,6.08
2019-05-07T11:15:45.878Z,5.03
2019-05-07T11:18:16.973Z,4.78
2019-05-07T11:20:50.277Z,6.17
2019-05-07T11:23:17.779Z,5.60
2019-05-07T11:25:47.228Z,6.75
2019-05-07T11:28:16.747Z,4.62
2019-05-07T11:30:46.442Z,5.90
2019-05-07T11:33:15.946Z,4.45
2019-05-07T11:35:45.412Z,4.78
2019-05-07T11:38:20.793Z,3.13
2019-05-07T11:40:46.041Z,5.23
2019-05-07T11:43:25.864Z,4.83
2019-05-07T11:46:01.958Z,6.90
2019-05-07T11:48:34.513Z,3.35
2019-05-07T11:51:04.646Z,3.73
2019-05-07T11:53:36.746Z,3.52
2019-05-07T11:56:06.166Z,4.75
2019-05-07T11:58:35.575Z,3.47
2019-05-07T12:01:07.534Z,2.67
2019-05-07T12:03:36.962Z,3.73
2019-05-07T12:06:06.479Z,4.40
2019-05-07T12:08:42.862Z,4.25
2019-05-07T12:11:07.135Z,2.33
2019-05-07T12:13:36.562Z,3.22
2019-05-07T12:16:06.018Z,3.00
2019-05-07T12:18:35.458Z,2.42
2019-05-07T12:21:17.490Z,3.08
2019-05-07T12:23:36.138Z,2.82
2019-05-07T12:26:05.667Z,5.75
2019-05-07T12:28:35.166Z,4.37
2019-05-07T12:31:06.424Z,1.72
2019-05-07T12:33:52.258Z,2.98
2019-05-07T12:36:22.776Z,2.72
2019-05-07T12:38:53.316Z,2.65
2019-05-07T12:41:29.729Z,4.30
2019-05-07T12:44:02.523Z,4.83
2019-05-07T12:46:33.407Z,4.67
2019-05-07T12:49:03.491Z,2.58
2019-05-07T12:51:37.643Z,5.45
2019-05-07T12:54:07.701Z,5.53
2019-05-07T12:56:37.232Z,5.00
2019-05-07T12:59:06.655Z,5.50
2019-05-07T13:01:38.900Z,5.63
2019-05-07T13:04:18.640Z,6.25
2019-05-07T13:06:58.514Z,5.45
2019-05-07T13:09:28.016Z,9.00
2019-05-07T13:11:57.463Z,5.35
2019-05-07T13:14:27.180Z,4.13
2019-05-07T13:16:56.863Z,3.47
2019-05-07T13:19:26.396Z,6.65
2019-05-07T13:21:55.998Z,6.37
2019-05-07T13:24:25.429Z,5.03
2019-05-07T13:27:03.270Z,5.17
2019-05-07T13:29:33.001Z,5.03
2019-05-07T13:32:03.639Z,6.10
2019-05-07T13:34:34.076Z,4.03
2019-05-07T13:37:18.832Z,4.47
2019-05-07T13:40:02.700Z,4.40
2019-05-07T13:42:43.964Z,3.37
2019-05-07T13:45:33.707Z,6.75
2019-05-07T13:48:07.935Z,7.20
2019-05-07T13:50:38.069Z,3.40
2019-05-07T13:53:07.528Z,5.67
2019-05-07T13:55:37.652Z,4.77
2019-05-07T13:58:07.346Z,4.60
2019-05-07T14:00:38.818Z,5.10
2019-05-07T14:03:08.421Z,7.23
2019-05-07T14:05:37.986Z,4.45
2019-05-07T14:08:07.528Z,2.87
2019-05-07T14:10:37.109Z,3.92
2019-05-07T14:13:12.647Z,4.40
2019-05-07T14:15:37.767Z,3.75
2019-05-07T14:18:07.290Z,3.65
2019-05-07T14:20:36.739Z,4.33
2019-05-07T14:23:06.335Z,3.27
2019-05-07T14:25:35.888Z,3.90
2019-05-07T14:28:05.431Z,3.72
2019-05-07T14:30:34.947Z,4.97
2019-05-07T14:33:06.191Z,3.35
2019-05-07T14:35:52.089Z,3.87
2019-05-07T14:38:25.357Z,5.23
2019-05-07T14:40:54.982Z,3.73
2019-05-07T14:43:32.527Z,4.15
2019-05-07T14:46:03.211Z,4.35
2019-05-07T14:48:35.820Z,4.30
2019-05-07T14:51:04.109Z,5.45
2019-05-07T14:53:34.080Z,3.77
2019-05-07T14:56:03.640Z,2.87
2019-05-07T14:58:33.225Z,4.53
2019-05-07T15:01:03.390Z,5.30
2019-05-07T15:03:32.904Z,2.70
2019-05-07T15:06:02.969Z,3.47
2019-05-07T15:08:33.525Z,3.60
2019-05-07T15:11:03.092Z,4.50
2019-05-07T15:13:32.621Z,5.73
2019-05-07T15:16:03.112Z,4.03
2019-05-07T15:18:43.521Z,3.65
2019-05-07T15:21:13.704Z,5.10
2019-05-07T15:23:43.404Z,4.07
2019-05-07T15:26:14.156Z,5.00
2019-05-07T15:28:45.393Z,2.33
2019-05-07T15:34:07.679Z,3.90
2019-05-07T15:36:37.251Z,3.35
2019-05-07T15:39:14.517Z,4.72
2019-05-07T15:41:44.100Z,4.47
2019-05-07T15:44:13.789Z,4.20
2019-05-07T15:46:43.395Z,3.80
2019-05-07T15:49:12.985Z,4.80
2019-05-07T15:51:42.439Z,5.33
2019-05-07T15:54:12.817Z,3.92
2019-05-07T15:56:45.047Z,3.30
2019-05-07T15:59:16.219Z,5.42
2019-05-07T16:01:45.681Z,5.42
2019-05-07T16:04:22.311Z,5.03
2019-05-07T16:06:46.361Z,4.00
2019-05-07T16:09:16.901Z,5.00
2019-05-07T16:11:48.031Z,5.23
2019-05-07T16:14:19.127Z,6.47
2019-05-07T16:16:48.625Z,4.77
2019-05-07T16:19:29.547Z,4.90
2019-05-07T16:22:03.604Z,4.20
2019-05-07T16:24:31.956Z,4.33
2019-05-07T16:27:04.910Z,5.62
2019-05-07T16:29:35.671Z,4.72
2019-05-07T16:32:04.786Z,4.37
2019-05-07T16:34:34.324Z,2.77
2019-05-07T16:37:07.153Z,4.20
2019-05-07T16:39:34.930Z,3.60
2019-05-07T16:42:04.517Z,3.43
2019-05-07T16:44:36.193Z,4.50
2019-05-07T16:47:05.725Z,5.00
2019-05-07T16:49:35.251Z,4.77
2019-05-07T16:52:04.789Z,5.73
2019-05-07T16:54:34.297Z,7.93
2019-05-07T16:57:21.821Z,4.13
2019-05-07T16:59:52.200Z,6.07
2019-05-07T17:02:23.459Z,5.03
2019-05-07T17:05:05.376Z,5.67
2019-05-07T17:07:37.768Z,5.13
2019-05-07T17:10:08.686Z,4.30
2019-05-07T17:12:41.713Z,3.73
2019-05-07T17:15:12.390Z,6.33
2019-05-07T17:17:42.751Z,4.30
2019-05-07T17:20:13.916Z,4.43
2019-05-07T17:22:43.604Z,5.17
2019-05-07T17:25:33.272Z,5.57
2019-05-07T17:28:02.952Z,3.47
2019-05-07T17:30:32.624Z,3.90
2019-05-07T17:33:02.247Z,3.20
2019-05-07T17:35:34.311Z,5.13
2019-05-07T17:38:07.187Z,4.20
2019-05-07T17:40:34.358Z,3.80
2019-05-07T17:43:04.151Z,3.67
2019-05-07T17:45:33.656Z,4.47
2019-05-07T17:48:03.755Z,4.77
2019-05-07T17:50:45.395Z,3.70
2019-05-07T17:53:14.974Z,4.67
2019-05-07T17:55:44.500Z,6.30
2019-05-07T17:58:13.960Z,3.40
2019-05-07T18:00:46.140Z,7.80
2019-05-07T18:03:36.271Z,5.07
2019-05-07T18:06:06.569Z,3.73
2019-05-07T18:08:36.207Z,4.17
2019-05-07T18:11:17.371Z,7.05
2019-05-07T18:13:36.962Z,3.87
2019-05-07T18:16:22.137Z,2.90
2019-05-07T18:18:52.000Z,5.30
2019-05-07T18:21:22.109Z,3.90
2019-05-07T18:23:51.794Z,4.47
2019-05-07T18:26:30.417Z,4.07
2019-05-07T18:28:53.584Z,6.43
2019-05-07T18:31:24.714Z,4.50
2019-05-07T18:33:55.871Z,3.93
2019-05-07T18:36:26.583Z,3.47
2019-05-07T18:38:56.778Z,3.97
2019-05-07T18:41:28.426Z,5.27
2019-05-07T18:44:09.067Z,6.90
2019-05-07T18:46:29.106Z,5.80
2019-05-07T18:48:58.612Z,6.53
2019-05-07T18:51:29.236Z,5.27
2019-05-07T18:53:58.745Z,5.67
2019-05-07T18:56:28.199Z,4.73
2019-05-07T18:58:59.429Z,5.20
2019-05-07T19:01:32.561Z,4.97
2019-05-07T19:04:02.148Z,5.60
2019-05-07T19:06:32.350Z,3.42
2019-05-07T19:09:01.898Z,5.83
2019-05-07T19:11:33.120Z,5.93
2019-05-07T19:14:03.080Z,7.77
2019-05-07T19:16:34.124Z,6.77
2019-05-07T19:19:03.785Z,5.97
2019-05-07T19:21:33.288Z,6.03
2019-05-07T19:24:02.934Z,5.40
2019-05-07T19:26:32.354Z,7.63
2019-05-07T19:29:02.581Z,6.50
2019-05-07T19:31:32.627Z,7.53
2019-05-07T19:34:03.344Z,6.37
2019-05-07T19:36:33.741Z,6.10
2019-05-07T19:39:05.576Z,5.00
2019-05-07T19:41:35.706Z,5.70
2019-05-07T19:44:07.238Z,5.93
2019-05-07T19:46:42.145Z,9.60
2019-05-07T19:49:11.776Z,6.87
2019-05-07T19:51:42.794Z,6.13
2019-05-07T19:54:12.483Z,6.17
2019-05-07T19:56:43.570Z,6.43
2019-05-07T19:59:13.182Z,6.80
2019-05-07T20:01:44.343Z,5.43
2019-05-07T20:04:14.891Z,9.37
2019-05-07T20:06:44.468Z,7.10
2019-05-07T20:09:15.896Z,7.60
2019-05-07T20:11:47.406Z,7.50
2019-05-07T20:14:18.420Z,9.33
2019-05-07T20:16:47.946Z,5.85
2019-05-07T20:19:20.277Z,6.87
2019-05-07T20:21:49.816Z,6.47
2019-05-07T20:24:21.790Z,6.77
2019-05-07T20:26:52.463Z,6.53
2019-05-07T20:29:22.953Z,5.58
2019-05-07T20:31:53.287Z,8.50
2019-05-07T20:34:24.354Z,7.77
2019-05-07T20:36:55.496Z,5.83
2019-05-07T20:39:26.435Z,6.37
2019-05-07T20:41:56.144Z,10.63
2019-05-07T20:44:25.697Z,7.63
2019-05-07T20:46:55.129Z,6.43
2019-05-07T20:49:26.125Z,6.60
2019-05-07T20:51:56.726Z,8.50
2019-05-07T20:54:28.802Z,10.40
2019-05-07T20:57:02.089Z,6.33
2019-05-07T20:59:32.793Z,7.27
2019-05-07T21:02:03.716Z,7.27
2019-05-07T21:04:33.245Z,5.53
2019-05-07T21:07:04.631Z,5.93
2019-05-07T21:09:34.231Z,6.43
2019-05-07T21:12:03.826Z,4.87
2019-05-07T21:14:33.322Z,6.67
2019-05-07T21:17:02.785Z,6.45
2019-05-07T21:19:33.084Z,6.07
2019-05-07T21:22:02.757Z,5.70
2019-05-07T21:24:33.074Z,6.03
2019-05-07T21:27:02.783Z,4.83
2019-05-07T21:29:32.773Z,5.13
2019-05-07T21:32:03.341Z,7.22
2019-05-07T21:34:32.918Z,8.20
2019-05-07T21:37:03.275Z,7.10
2019-05-07T21:39:33.216Z,6.90
2019-05-07T21:42:02.687Z,10.47
2019-05-07T21:44:32.663Z,7.40
2019-05-07T21:47:03.885Z,7.57
2019-05-07T21:49:35.226Z,6.87
2019-05-07T21:52:04.720Z,4.33
2019-05-07T21:54:43.542Z,6.87
2019-05-07T21:57:15.335Z,6.13
2019-05-07T21:59:44.864Z,7.33
2019-05-07T22:02:16.098Z,5.07
2019-05-07T22:04:45.499Z,7.30
2019-05-07T22:07:14.956Z,6.83
2019-05-07T22:09:44.456Z,6.63
2019-05-07T22:12:13.910Z,5.87
2019-05-07T22:14:43.320Z,5.40
2019-05-07T22:18:16.807Z,4.60
2019-05-07T22:21:04.111Z,7.20
2019-05-07T22:23:34.755Z,6.80
2019-05-07T22:26:19.308Z,4.23
2019-05-07T22:28:37.644Z,7.30
2019-05-07T22:31:19.627Z,8.03
2019-05-07T22:33:52.625Z,4.77
2019-05-07T22:36:22.144Z,5.83
2019-05-07T22:38:55.957Z,6.60
2019-05-07T22:41:27.302Z,4.63
2019-05-07T22:43:58.338Z,6.60
2019-05-07T22:46:27.729Z,7.13
2019-05-07T22:48:57.162Z,5.60
2019-05-07T22:51:26.598Z,4.63
2019-05-07T22:53:56.148Z,3.70
2019-05-07T22:56:37.175Z,6.72
2019-05-07T22:58:58.308Z,4.10
2019-05-07T23:01:27.764Z,6.83
2019-05-07T23:03:57.194Z,4.57
2019-05-07T23:06:26.712Z,7.27
2019-05-07T23:08:56.168Z,5.93
2019-05-07T23:11:25.607Z,4.87
2019-05-07T23:13:55.082Z,4.87
2019-05-07T23:16:24.508Z,5.53
2019-05-07T23:18:53.960Z,6.37
2019-05-07T23:21:24.636Z,5.97
2019-05-07T23:23:55.208Z,3.93
2019-05-07T23:26:24.627Z,4.80
2019-05-07T23:28:55.154Z,6.67
2019-05-07T23:31:24.577Z,6.07
2019-05-07T23:33:54.076Z,4.97
2019-05-07T23:36:23.423Z,5.93
2019-05-07T23:38:52.928Z,4.43
2019-05-07T23:41:37.344Z,4.97
2019-05-07T23:44:12.473Z,6.43
2019-05-07T23:46:44.329Z,5.50
2019-05-07T23:49:12.750Z,5.70
2019-05-07T23:51:42.522Z,4.63
2019-05-07T23:54:13.100Z,3.73
2019-05-07T23:56:44.176Z,5.08
2019-05-07T23:59:15.055Z,5.13
